sensor_id;sensor_type;location;lat;lon;timestamp;P1;durP1;ratioP1;P2;durP2;ratioP2
26191;SDS011;13935;55.672;37.764;2023-08-21T00:00:25;9.15;;;7.28;;
26191;SDS011;13935;55.672;37.764;2023-08-21T00:01:27;10.65;;;7.53;;
26191;SDS011;13935;55.672;37.764;2023-08-21T00:02:29;8.43;;;7.05;;
26191;SDS011;13935;55.672;37.764;2023-08-21T00:03:32;12.25;;;7.72;;
26191;SDS011;13935;55.672;37.764;2023-08-21T00:04:34;8.43;;;6.75;;
26191;SDS011;13935;55.672;37.764;2023-08-21T00:05:36;10.20;;;7.30;;
26191;SDS011;13935;55.672;37.764;2023-08-21T00:06:38;10.90;;;8.20;;
26191;SDS011;13935;55.672;37.764;2023-08-21T00:07:40;12.25;;;7.93;;
26191;SDS011;13935;55.672;37.764;2023-08-21T00:08:43;10.10;;;7.82;;
26191;SDS011;13935;55.672;37.764;2023-08-21T00:09:45;9.40;;;7.68;;
26191;SDS011;13935;55.672;37.764;2023-08-21T00:10:47;9.82;;;8.13;;
26191;SDS011;13935;55.672;37.764;2023-08-21T00:11:49;10.15;;;8.02;;
26191;SDS011;13935;55.672;37.764;2023-08-21T00:12:51;10.68;;;9.02;;
26191;SDS011;13935;55.672;37.764;2023-08-21T00:13:54;9.57;;;7.65;;
26191;SDS011;13935;55.672;37.764;2023-08-21T00:14:56;11.70;;;9.07;;
26191;SDS011;13935;55.672;37.764;2023-08-21T00:15:59;11.88;;;8.43;;
26191;SDS011;13935;55.672;37.764;2023-08-21T00:17:02;11.38;;;8.70;;
26191;SDS011;13935;55.672;37.764;2023-08-21T00:18:05;11.43;;;8.57;;
26191;SDS011;13935;55.672;37.764;2023-08-21T00:19:07;12.00;;;9.07;;
26191;SDS011;13935;55.672;37.764;2023-08-21T00:20:09;11.93;;;8.80;;
26191;SDS011;13935;55.672;37.764;2023-08-21T00:23:57;12.90;;;8.60;;
26191;SDS011;13935;55.672;37.764;2023-08-21T00:24:59;11.60;;;8.75;;
26191;SDS011;13935;55.672;37.764;2023-08-21T00:26:03;11.10;;;8.20;;
26191;SDS011;13935;55.672;37.764;2023-08-21T00:27:44;10.45;;;8.60;;
26191;SDS011;13935;55.672;37.764;2023-08-21T00:28:46;11.82;;;9.13;;
26191;SDS011;13935;55.672;37.764;2023-08-21T00:29:48;11.18;;;8.43;;
26191;SDS011;13935;55.672;37.764;2023-08-21T00:30:50;11.50;;;9.20;;
26191;SDS011;13935;55.672;37.764;2023-08-21T00:31:52;11.15;;;8.48;;
26191;SDS011;13935;55.672;37.764;2023-08-21T00:32:56;11.25;;;8.80;;
26191;SDS011;13935;55.672;37.764;2023-08-21T00:33:59;10.57;;;8.63;;
26191;SDS011;13935;55.672;37.764;2023-08-21T00:35:04;11.77;;;9.38;;
26191;SDS011;13935;55.672;37.764;2023-08-21T00:38:53;11.40;;;8.68;;
26191;SDS011;13935;55.672;37.764;2023-08-21T00:39:57;12.10;;;9.18;;
26191;SDS011;13935;55.672;37.764;2023-08-21T00:40:59;10.82;;;8.38;;
26191;SDS011;13935;55.672;37.764;2023-08-21T00:45:17;11.10;;;8.40;;
26191;SDS011;13935;55.672;37.764;2023-08-21T00:47:23;10.40;;;8.05;;
26191;SDS011;13935;55.672;37.764;2023-08-21T00:48:53;11.25;;;8.50;;
26191;SDS011;13935;55.672;37.764;2023-08-21T00:49:59;11.43;;;8.70;;
26191;SDS011;13935;55.672;37.764;2023-08-21T00:51:04;10.30;;;8.23;;
26191;SDS011;13935;55.672;37.764;2023-08-21T00:52:19;10.07;;;8.05;;
26191;SDS011;13935;55.672;37.764;2023-08-21T00:53:22;12.40;;;8.10;;
26191;SDS011;13935;55.672;37.764;2023-08-21T00:54:26;11.40;;;8.48;;
26191;SDS011;13935;55.672;37.764;2023-08-21T00:55:30;10.52;;;8.13;;
26191;SDS011;13935;55.672;37.764;2023-08-21T00:56:34;11.55;;;8.30;;
26191;SDS011;13935;55.672;37.764;2023-08-21T00:57:37;9.77;;;8.30;;
26191;SDS011;13935;55.672;37.764;2023-08-21T00:58:40;11.02;;;8.27;;
26191;SDS011;13935;55.672;37.764;2023-08-21T00:59:46;11.07;;;8.07;;
26191;SDS011;13935;55.672;37.764;2023-08-21T01:00:49;11.05;;;8.82;;
26191;SDS011;13935;55.672;37.764;2023-08-21T01:04:12;13.73;;;8.13;;
26191;SDS011;13935;55.672;37.764;2023-08-21T01:09:36;13.77;;;8.57;;
26191;SDS011;13935;55.672;37.764;2023-08-21T01:15:28;10.88;;;8.23;;
26191;SDS011;13935;55.672;37.764;2023-08-21T01:18:36;11.75;;;7.40;;
26191;SDS011;13935;55.672;37.764;2023-08-21T01:20:27;9.73;;;7.55;;
26191;SDS011;13935;55.672;37.764;2023-08-21T01:27:33;11.30;;;7.63;;
26191;SDS011;13935;55.672;37.764;2023-08-21T01:30:50;8.93;;;7.00;;
26191;SDS011;13935;55.672;37.764;2023-08-21T01:39:51;9.82;;;7.40;;
26191;SDS011;13935;55.672;37.764;2023-08-21T01:45:36;11.15;;;7.90;;
26191;SDS011;13935;55.672;37.764;2023-08-21T01:47:29;9.90;;;7.20;;
26191;SDS011;13935;55.672;37.764;2023-08-21T01:49:24;11.50;;;7.70;;
26191;SDS011;13935;55.672;37.764;2023-08-21T01:50:37;10.35;;;7.93;;
26191;SDS011;13935;55.672;37.764;2023-08-21T01:52:43;13.52;;;8.10;;
26191;SDS011;13935;55.672;37.764;2023-08-21T01:56:04;10.50;;;7.40;;
26191;SDS011;13935;55.672;37.764;2023-08-21T01:58:44;10.90;;;7.20;;
26191;SDS011;13935;55.672;37.764;2023-08-21T02:02:11;10.20;;;7.03;;
26191;SDS011;13935;55.672;37.764;2023-08-21T02:10:46;11.50;;;8.20;;
26191;SDS011;13935;55.672;37.764;2023-08-21T02:13:49;9.80;;;7.28;;
26191;SDS011;13935;55.672;37.764;2023-08-21T02:19:41;11.57;;;8.52;;
26191;SDS011;13935;55.672;37.764;2023-08-21T02:22:24;12.88;;;8.50;;
26191;SDS011;13935;55.672;37.764;2023-08-21T02:25:00;13.20;;;8.38;;
26191;SDS011;13935;55.672;37.764;2023-08-21T02:30:39;11.68;;;8.35;;
26191;SDS011;13935;55.672;37.764;2023-08-21T02:40:01;11.90;;;8.82;;
26191;SDS011;13935;55.672;37.764;2023-08-21T02:41:13;13.43;;;8.57;;
26191;SDS011;13935;55.672;37.764;2023-08-21T02:45:00;13.85;;;8.88;;
26191;SDS011;13935;55.672;37.764;2023-08-21T02:48:39;12.63;;;7.95;;
26191;SDS011;13935;55.672;37.764;2023-08-21T02:49:43;12.20;;;8.55;;
26191;SDS011;13935;55.672;37.764;2023-08-21T02:51:24;12.93;;;8.63;;
26191;SDS011;13935;55.672;37.764;2023-08-21T02:52:27;12.85;;;9.32;;
26191;SDS011;13935;55.672;37.764;2023-08-21T02:54:03;12.70;;;9.07;;
26191;SDS011;13935;55.672;37.764;2023-08-21T02:55:12;12.30;;;8.85;;
26191;SDS011;13935;55.672;37.764;2023-08-21T02:56:19;16.15;;;9.18;;
26191;SDS011;13935;55.672;37.764;2023-08-21T02:57:31;13.88;;;8.93;;
26191;SDS011;13935;55.672;37.764;2023-08-21T02:59:02;11.00;;;7.80;;
26191;SDS011;13935;55.672;37.764;2023-08-21T03:00:10;11.15;;;8.13;;
26191;SDS011;13935;55.672;37.764;2023-08-21T03:01:14;11.10;;;8.02;;
26191;SDS011;13935;55.672;37.764;2023-08-21T03:02:17;11.75;;;7.55;;
26191;SDS011;13935;55.672;37.764;2023-08-21T03:03:20;14.80;;;7.63;;
26191;SDS011;13935;55.672;37.764;2023-08-21T03:04:24;13.27;;;7.63;;
26191;SDS011;13935;55.672;37.764;2023-08-21T03:05:26;11.20;;;7.38;;
26191;SDS011;13935;55.672;37.764;2023-08-21T03:06:28;11.73;;;7.80;;
26191;SDS011;13935;55.672;37.764;2023-08-21T03:07:30;11.05;;;8.00;;
26191;SDS011;13935;55.672;37.764;2023-08-21T03:08:32;12.43;;;8.52;;
26191;SDS011;13935;55.672;37.764;2023-08-21T03:09:34;10.75;;;8.23;;
26191;SDS011;13935;55.672;37.764;2023-08-21T03:10:39;10.07;;;7.32;;
26191;SDS011;13935;55.672;37.764;2023-08-21T03:11:49;12.73;;;7.90;;
26191;SDS011;13935;55.672;37.764;2023-08-21T03:12:50;13.25;;;8.25;;
26191;SDS011;13935;55.672;37.764;2023-08-21T03:15:35;11.13;;;7.55;;
26191;SDS011;13935;55.672;37.764;2023-08-21T03:16:37;12.35;;;7.97;;
26191;SDS011;13935;55.672;37.764;2023-08-21T03:17:58;11.18;;;8.10;;
26191;SDS011;13935;55.672;37.764;2023-08-21T03:19:01;13.07;;;7.30;;
26191;SDS011;13935;55.672;37.764;2023-08-21T03:20:05;11.02;;;7.45;;
26191;SDS011;13935;55.672;37.764;2023-08-21T03:21:08;11.82;;;7.65;;
26191;SDS011;13935;55.672;37.764;2023-08-21T03:24:26;9.50;;;6.88;;
26191;SDS011;13935;55.672;37.764;2023-08-21T03:25:30;11.05;;;6.85;;
26191;SDS011;13935;55.672;37.764;2023-08-21T03:26:32;9.48;;;6.65;;
26191;SDS011;13935;55.672;37.764;2023-08-21T03:28:28;9.93;;;7.38;;
26191;SDS011;13935;55.672;37.764;2023-08-21T03:29:30;10.68;;;7.07;;
26191;SDS011;13935;55.672;37.764;2023-08-21T03:33:52;8.50;;;6.68;;
26191;SDS011;13935;55.672;37.764;2023-08-21T03:40:53;9.48;;;6.60;;
26191;SDS011;13935;55.672;37.764;2023-08-21T03:42:18;10.20;;;6.75;;
26191;SDS011;13935;55.672;37.764;2023-08-21T03:44:43;12.15;;;6.88;;
26191;SDS011;13935;55.672;37.764;2023-08-21T03:49:31;9.93;;;6.18;;
26191;SDS011;13935;55.672;37.764;2023-08-21T03:54:17;9.88;;;6.25;;
26191;SDS011;13935;55.672;37.764;2023-08-21T03:55:25;9.77;;;6.57;;
26191;SDS011;13935;55.672;37.764;2023-08-21T03:56:27;9.05;;;6.47;;
26191;SDS011;13935;55.672;37.764;2023-08-21T04:00:46;10.30;;;5.78;;
26191;SDS011;13935;55.672;37.764;2023-08-21T04:02:29;11.82;;;6.07;;
26191;SDS011;13935;55.672;37.764;2023-08-21T04:03:31;10.52;;;6.53;;
26191;SDS011;13935;55.672;37.764;2023-08-21T04:04:35;11.30;;;5.88;;
26191;SDS011;13935;55.672;37.764;2023-08-21T04:05:37;10.43;;;5.60;;
26191;SDS011;13935;55.672;37.764;2023-08-21T04:06:39;9.73;;;5.40;;
26191;SDS011;13935;55.672;37.764;2023-08-21T04:07:41;8.98;;;5.38;;
26191;SDS011;13935;55.672;37.764;2023-08-21T04:08:43;9.75;;;4.90;;
26191;SDS011;13935;55.672;37.764;2023-08-21T04:09:45;7.47;;;5.18;;
26191;SDS011;13935;55.672;37.764;2023-08-21T04:10:47;8.88;;;5.20;;
26191;SDS011;13935;55.672;37.764;2023-08-21T04:11:49;7.70;;;5.45;;
26191;SDS011;13935;55.672;37.764;2023-08-21T04:12:52;6.72;;;5.10;;
26191;SDS011;13935;55.672;37.764;2023-08-21T04:13:54;7.25;;;5.03;;
26191;SDS011;13935;55.672;37.764;2023-08-21T04:14:56;7.13;;;4.72;;
26191;SDS011;13935;55.672;37.764;2023-08-21T04:15:58;7.25;;;4.80;;
26191;SDS011;13935;55.672;37.764;2023-08-21T04:17:00;7.35;;;4.75;;
26191;SDS011;13935;55.672;37.764;2023-08-21T04:18:05;7.93;;;4.75;;
26191;SDS011;13935;55.672;37.764;2023-08-21T04:19:07;7.70;;;4.95;;
26191;SDS011;13935;55.672;37.764;2023-08-21T04:20:12;9.25;;;5.25;;
26191;SDS011;13935;55.672;37.764;2023-08-21T04:21:14;7.90;;;4.55;;
26191;SDS011;13935;55.672;37.764;2023-08-21T04:22:17;7.63;;;4.63;;
26191;SDS011;13935;55.672;37.764;2023-08-21T04:23:20;8.38;;;4.80;;
26191;SDS011;13935;55.672;37.764;2023-08-21T04:24:22;7.53;;;4.82;;
26191;SDS011;13935;55.672;37.764;2023-08-21T04:25:24;7.22;;;4.57;;
26191;SDS011;13935;55.672;37.764;2023-08-21T04:26:26;7.15;;;5.03;;
26191;SDS011;13935;55.672;37.764;2023-08-21T04:27:28;8.13;;;4.85;;
26191;SDS011;13935;55.672;37.764;2023-08-21T04:28:30;8.63;;;4.82;;
26191;SDS011;13935;55.672;37.764;2023-08-21T04:29:37;7.25;;;4.95;;
26191;SDS011;13935;55.672;37.764;2023-08-21T04:30:40;6.63;;;4.78;;
26191;SDS011;13935;55.672;37.764;2023-08-21T04:31:43;6.93;;;4.60;;
26191;SDS011;13935;55.672;37.764;2023-08-21T04:32:46;5.35;;;3.92;;
26191;SDS011;13935;55.672;37.764;2023-08-21T04:33:49;6.32;;;4.28;;
26191;SDS011;13935;55.672;37.764;2023-08-21T04:34:51;7.72;;;4.90;;
26191;SDS011;13935;55.672;37.764;2023-08-21T04:35:53;6.15;;;4.10;;
26191;SDS011;13935;55.672;37.764;2023-08-21T04:36:55;5.85;;;4.32;;
26191;SDS011;13935;55.672;37.764;2023-08-21T04:37:57;7.03;;;4.10;;
26191;SDS011;13935;55.672;37.764;2023-08-21T04:38:59;7.80;;;4.35;;
26191;SDS011;13935;55.672;37.764;2023-08-21T04:40:02;5.85;;;4.05;;
26191;SDS011;13935;55.672;37.764;2023-08-21T04:41:07;5.53;;;4.07;;
26191;SDS011;13935;55.672;37.764;2023-08-21T04:42:12;5.20;;;3.97;;
26191;SDS011;13935;55.672;37.764;2023-08-21T04:43:15;5.40;;;3.72;;
26191;SDS011;13935;55.672;37.764;2023-08-21T04:44:17;8.38;;;4.18;;
26191;SDS011;13935;55.672;37.764;2023-08-21T04:45:21;6.88;;;3.70;;
26191;SDS011;13935;55.672;37.764;2023-08-21T04:46:23;6.30;;;3.80;;
26191;SDS011;13935;55.672;37.764;2023-08-21T04:47:26;8.48;;;3.78;;
26191;SDS011;13935;55.672;37.764;2023-08-21T04:48:34;6.80;;;4.00;;
26191;SDS011;13935;55.672;37.764;2023-08-21T04:49:36;5.68;;;3.55;;
26191;SDS011;13935;55.672;37.764;2023-08-21T04:50:38;6.05;;;3.58;;
26191;SDS011;13935;55.672;37.764;2023-08-21T04:51:40;5.93;;;3.47;;
26191;SDS011;13935;55.672;37.764;2023-08-21T04:52:42;6.03;;;3.47;;
26191;SDS011;13935;55.672;37.764;2023-08-21T04:53:44;5.88;;;3.88;;
26191;SDS011;13935;55.672;37.764;2023-08-21T04:54:51;5.60;;;3.47;;
26191;SDS011;13935;55.672;37.764;2023-08-21T04:55:55;5.43;;;3.13;;
26191;SDS011;13935;55.672;37.764;2023-08-21T04:56:57;4.32;;;3.25;;
26191;SDS011;13935;55.672;37.764;2023-08-21T04:57:59;5.32;;;3.50;;
26191;SDS011;13935;55.672;37.764;2023-08-21T04:59:01;5.22;;;3.53;;
26191;SDS011;13935;55.672;37.764;2023-08-21T05:00:05;5.57;;;3.03;;
26191;SDS011;13935;55.672;37.764;2023-08-21T05:01:12;5.75;;;3.50;;
26191;SDS011;13935;55.672;37.764;2023-08-21T05:02:22;5.45;;;2.90;;
26191;SDS011;13935;55.672;37.764;2023-08-21T05:03:26;4.40;;;3.17;;
26191;SDS011;13935;55.672;37.764;2023-08-21T05:04:28;6.45;;;3.17;;
26191;SDS011;13935;55.672;37.764;2023-08-21T05:05:30;5.72;;;3.28;;
26191;SDS011;13935;55.672;37.764;2023-08-21T05:06:33;6.18;;;3.03;;
26191;SDS011;13935;55.672;37.764;2023-08-21T05:07:36;4.47;;;3.00;;
26191;SDS011;13935;55.672;37.764;2023-08-21T05:08:39;6.05;;;3.25;;
26191;SDS011;13935;55.672;37.764;2023-08-21T05:09:42;5.40;;;3.30;;
26191;SDS011;13935;55.672;37.764;2023-08-21T05:10:46;4.38;;;2.97;;
26191;SDS011;13935;55.672;37.764;2023-08-21T05:11:48;6.57;;;3.45;;
26191;SDS011;13935;55.672;37.764;2023-08-21T05:12:51;6.03;;;3.05;;
26191;SDS011;13935;55.672;37.764;2023-08-21T05:13:53;5.40;;;3.25;;
26191;SDS011;13935;55.672;37.764;2023-08-21T05:14:56;6.70;;;3.60;;
26191;SDS011;13935;55.672;37.764;2023-08-21T05:15:58;5.53;;;3.22;;
26191;SDS011;13935;55.672;37.764;2023-08-21T05:17:07;6.28;;;3.30;;
26191;SDS011;13935;55.672;37.764;2023-08-21T05:18:10;7.63;;;3.38;;
26191;SDS011;13935;55.672;37.764;2023-08-21T05:19:12;4.90;;;3.15;;
26191;SDS011;13935;55.672;37.764;2023-08-21T05:20:14;5.50;;;2.88;;
26191;SDS011;13935;55.672;37.764;2023-08-21T05:21:18;4.43;;;2.83;;
26191;SDS011;13935;55.672;37.764;2023-08-21T05:22:20;6.43;;;3.60;;
26191;SDS011;13935;55.672;37.764;2023-08-21T05:23:22;5.55;;;3.25;;
26191;SDS011;13935;55.672;37.764;2023-08-21T05:24:28;6.20;;;3.15;;
26191;SDS011;13935;55.672;37.764;2023-08-21T05:25:36;4.32;;;2.95;;
26191;SDS011;13935;55.672;37.764;2023-08-21T05:26:38;5.25;;;3.42;;
26191;SDS011;13935;55.672;37.764;2023-08-21T05:27:41;5.00;;;3.10;;
26191;SDS011;13935;55.672;37.764;2023-08-21T05:28:43;5.03;;;2.67;;
26191;SDS011;13935;55.672;37.764;2023-08-21T05:29:45;4.53;;;2.85;;
26191;SDS011;13935;55.672;37.764;2023-08-21T05:30:47;5.32;;;3.05;;
26191;SDS011;13935;55.672;37.764;2023-08-21T05:31:51;7.80;;;3.38;;
26191;SDS011;13935;55.672;37.764;2023-08-21T05:32:54;5.30;;;2.90;;
26191;SDS011;13935;55.672;37.764;2023-08-21T05:33:56;5.32;;;3.08;;
26191;SDS011;13935;55.672;37.764;2023-08-21T05:34:59;5.55;;;3.42;;
26191;SDS011;13935;55.672;37.764;2023-08-21T05:36:01;4.30;;;3.13;;
26191;SDS011;13935;55.672;37.764;2023-08-21T05:37:03;4.63;;;3.17;;
26191;SDS011;13935;55.672;37.764;2023-08-21T05:38:05;5.13;;;3.28;;
26191;SDS011;13935;55.672;37.764;2023-08-21T05:39:09;6.15;;;3.00;;
26191;SDS011;13935;55.672;37.764;2023-08-21T05:40:11;4.07;;;2.80;;
26191;SDS011;13935;55.672;37.764;2023-08-21T05:41:14;4.15;;;2.97;;
26191;SDS011;13935;55.672;37.764;2023-08-21T05:42:17;4.47;;;2.78;;
26191;SDS011;13935;55.672;37.764;2023-08-21T05:43:19;5.65;;;2.70;;
26191;SDS011;13935;55.672;37.764;2023-08-21T05:44:21;5.95;;;2.80;;
26191;SDS011;13935;55.672;37.764;2023-08-21T05:45:23;4.60;;;2.70;;
26191;SDS011;13935;55.672;37.764;2023-08-21T05:46:25;5.13;;;2.95;;
26191;SDS011;13935;55.672;37.764;2023-08-21T05:47:29;5.78;;;2.75;;
26191;SDS011;13935;55.672;37.764;2023-08-21T05:48:31;5.40;;;2.92;;
26191;SDS011;13935;55.672;37.764;2023-08-21T05:49:33;4.82;;;2.78;;
26191;SDS011;13935;55.672;37.764;2023-08-21T05:50:36;6.30;;;2.83;;
26191;SDS011;13935;55.672;37.764;2023-08-21T05:51:38;4.22;;;2.70;;
26191;SDS011;13935;55.672;37.764;2023-08-21T05:52:42;3.40;;;2.38;;
26191;SDS011;13935;55.672;37.764;2023-08-21T05:53:45;4.57;;;2.58;;
26191;SDS011;13935;55.672;37.764;2023-08-21T05:54:47;5.75;;;2.50;;
26191;SDS011;13935;55.672;37.764;2023-08-21T05:55:50;3.83;;;2.90;;
26191;SDS011;13935;55.672;37.764;2023-08-21T05:56:52;4.50;;;2.55;;
26191;SDS011;13935;55.672;37.764;2023-08-21T05:57:54;5.03;;;2.75;;
26191;SDS011;13935;55.672;37.764;2023-08-21T05:58:56;4.30;;;2.50;;
26191;SDS011;13935;55.672;37.764;2023-08-21T05:59:59;5.88;;;2.92;;
26191;SDS011;13935;55.672;37.764;2023-08-21T06:01:04;4.05;;;2.60;;
26191;SDS011;13935;55.672;37.764;2023-08-21T06:02:08;3.47;;;2.55;;
26191;SDS011;13935;55.672;37.764;2023-08-21T06:03:10;4.47;;;2.60;;
26191;SDS011;13935;55.672;37.764;2023-08-21T06:04:42;4.30;;;2.70;;
26191;SDS011;13935;55.672;37.764;2023-08-21T06:05:45;3.92;;;2.55;;
26191;SDS011;13935;55.672;37.764;2023-08-21T06:06:48;6.07;;;3.10;;
26191;SDS011;13935;55.672;37.764;2023-08-21T06:07:53;5.38;;;3.03;;
26191;SDS011;13935;55.672;37.764;2023-08-21T06:08:54;5.72;;;2.83;;
26191;SDS011;13935;55.672;37.764;2023-08-21T06:09:57;4.20;;;2.80;;
26191;SDS011;13935;55.672;37.764;2023-08-21T06:10:59;5.82;;;2.60;;
26191;SDS011;13935;55.672;37.764;2023-08-21T06:12:02;4.70;;;2.63;;
26191;SDS011;13935;55.672;37.764;2023-08-21T06:13:06;4.90;;;2.88;;
26191;SDS011;13935;55.672;37.764;2023-08-21T06:14:09;5.50;;;2.90;;
26191;SDS011;13935;55.672;37.764;2023-08-21T06:15:11;4.50;;;2.60;;
26191;SDS011;13935;55.672;37.764;2023-08-21T06:16:13;5.88;;;2.90;;
26191;SDS011;13935;55.672;37.764;2023-08-21T06:17:17;5.80;;;2.85;;
26191;SDS011;13935;55.672;37.764;2023-08-21T06:18:19;4.95;;;2.67;;
26191;SDS011;13935;55.672;37.764;2023-08-21T06:19:21;5.63;;;3.10;;
26191;SDS011;13935;55.672;37.764;2023-08-21T06:20:24;4.93;;;2.83;;
26191;SDS011;13935;55.672;37.764;2023-08-21T06:21:26;4.97;;;2.63;;
26191;SDS011;13935;55.672;37.764;2023-08-21T06:22:28;3.90;;;2.50;;
26191;SDS011;13935;55.672;37.764;2023-08-21T06:23:30;5.00;;;2.30;;
26191;SDS011;13935;55.672;37.764;2023-08-21T06:24:32;3.72;;;2.15;;
26191;SDS011;13935;55.672;37.764;2023-08-21T06:25:37;5.13;;;2.70;;
26191;SDS011;13935;55.672;37.764;2023-08-21T06:26:39;4.60;;;2.88;;
26191;SDS011;13935;55.672;37.764;2023-08-21T06:27:42;4.28;;;2.50;;
26191;SDS011;13935;55.672;37.764;2023-08-21T06:28:59;6.05;;;3.10;;
26191;SDS011;13935;55.672;37.764;2023-08-21T06:30:01;6.53;;;2.88;;
26191;SDS011;13935;55.672;37.764;2023-08-21T06:31:03;4.45;;;2.92;;
26191;SDS011;13935;55.672;37.764;2023-08-21T06:32:09;4.80;;;2.75;;
26191;SDS011;13935;55.672;37.764;2023-08-21T06:33:12;4.85;;;2.97;;
26191;SDS011;13935;55.672;37.764;2023-08-21T06:34:15;4.88;;;3.05;;
26191;SDS011;13935;55.672;37.764;2023-08-21T06:35:17;3.88;;;2.40;;
26191;SDS011;13935;55.672;37.764;2023-08-21T06:36:19;4.82;;;2.75;;
26191;SDS011;13935;55.672;37.764;2023-08-21T06:37:21;6.78;;;2.80;;
26191;SDS011;13935;55.672;37.764;2023-08-21T06:38:23;4.80;;;2.88;;
26191;SDS011;13935;55.672;37.764;2023-08-21T06:39:25;6.43;;;3.10;;
26191;SDS011;13935;55.672;37.764;2023-08-21T06:40:27;5.60;;;3.00;;
26191;SDS011;13935;55.672;37.764;2023-08-21T06:41:29;5.55;;;3.10;;
26191;SDS011;13935;55.672;37.764;2023-08-21T06:42:32;5.95;;;2.88;;
26191;SDS011;13935;55.672;37.764;2023-08-21T06:43:35;4.22;;;2.58;;
26191;SDS011;13935;55.672;37.764;2023-08-21T06:44:37;4.68;;;2.78;;
26191;SDS011;13935;55.672;37.764;2023-08-21T06:45:40;5.95;;;3.00;;
26191;SDS011;13935;55.672;37.764;2023-08-21T06:46:42;5.18;;;2.80;;
26191;SDS011;13935;55.672;37.764;2023-08-21T06:47:45;5.30;;;2.78;;
26191;SDS011;13935;55.672;37.764;2023-08-21T06:48:47;4.53;;;2.70;;
26191;SDS011;13935;55.672;37.764;2023-08-21T06:49:49;4.60;;;2.83;;
26191;SDS011;13935;55.672;37.764;2023-08-21T06:50:51;5.20;;;2.70;;
26191;SDS011;13935;55.672;37.764;2023-08-21T06:51:53;5.47;;;2.88;;
26191;SDS011;13935;55.672;37.764;2023-08-21T06:52:55;4.13;;;2.50;;
26191;SDS011;13935;55.672;37.764;2023-08-21T06:53:57;4.68;;;2.58;;
26191;SDS011;13935;55.672;37.764;2023-08-21T06:54:59;4.15;;;2.85;;
26191;SDS011;13935;55.672;37.764;2023-08-21T06:56:01;4.50;;;2.35;;
26191;SDS011;13935;55.672;37.764;2023-08-21T06:57:03;4.10;;;2.40;;
26191;SDS011;13935;55.672;37.764;2023-08-21T06:58:06;4.60;;;2.38;;
26191;SDS011;13935;55.672;37.764;2023-08-21T06:59:08;4.28;;;2.65;;
26191;SDS011;13935;55.672;37.764;2023-08-21T07:00:10;4.65;;;2.75;;
26191;SDS011;13935;55.672;37.764;2023-08-21T07:01:12;4.10;;;2.47;;
26191;SDS011;13935;55.672;37.764;2023-08-21T07:02:15;5.53;;;2.40;;
26191;SDS011;13935;55.672;37.764;2023-08-21T07:03:17;3.78;;;2.38;;
26191;SDS011;13935;55.672;37.764;2023-08-21T07:04:19;6.75;;;2.75;;
26191;SDS011;13935;55.672;37.764;2023-08-21T07:05:21;4.38;;;2.50;;
26191;SDS011;13935;55.672;37.764;2023-08-21T07:06:24;4.97;;;2.92;;
26191;SDS011;13935;55.672;37.764;2023-08-21T07:07:26;5.15;;;2.60;;
26191;SDS011;13935;55.672;37.764;2023-08-21T07:08:28;5.68;;;2.95;;
26191;SDS011;13935;55.672;37.764;2023-08-21T07:09:30;7.60;;;4.30;;
26191;SDS011;13935;55.672;37.764;2023-08-21T07:10:36;4.80;;;2.80;;
26191;SDS011;13935;55.672;37.764;2023-08-21T07:11:38;6.00;;;2.80;;
26191;SDS011;13935;55.672;37.764;2023-08-21T07:12:41;6.35;;;2.88;;
26191;SDS011;13935;55.672;37.764;2023-08-21T07:13:42;4.45;;;2.58;;
26191;SDS011;13935;55.672;37.764;2023-08-21T07:14:45;4.18;;;2.50;;
26191;SDS011;13935;55.672;37.764;2023-08-21T07:15:46;7.70;;;2.95;;
26191;SDS011;13935;55.672;37.764;2023-08-21T07:16:49;3.67;;;2.47;;
26191;SDS011;13935;55.672;37.764;2023-08-21T07:17:51;6.07;;;2.65;;
26191;SDS011;13935;55.672;37.764;2023-08-21T07:18:53;5.65;;;2.70;;
26191;SDS011;13935;55.672;37.764;2023-08-21T07:19:55;9.68;;;2.53;;
26191;SDS011;13935;55.672;37.764;2023-08-21T07:20:57;4.55;;;2.55;;
26191;SDS011;13935;55.672;37.764;2023-08-21T07:21:59;3.85;;;2.58;;
26191;SDS011;13935;55.672;37.764;2023-08-21T07:23:01;4.28;;;2.40;;
26191;SDS011;13935;55.672;37.764;2023-08-21T07:24:03;5.97;;;2.70;;
26191;SDS011;13935;55.672;37.764;2023-08-21T07:25:06;4.78;;;2.67;;
26191;SDS011;13935;55.672;37.764;2023-08-21T07:26:08;3.53;;;2.33;;
26191;SDS011;13935;55.672;37.764;2023-08-21T07:27:10;4.30;;;2.60;;
26191;SDS011;13935;55.672;37.764;2023-08-21T07:28:12;5.15;;;2.70;;
26191;SDS011;13935;55.672;37.764;2023-08-21T07:29:14;5.32;;;2.70;;
26191;SDS011;13935;55.672;37.764;2023-08-21T07:30:16;5.45;;;3.20;;
26191;SDS011;13935;55.672;37.764;2023-08-21T07:31:19;5.65;;;3.03;;
26191;SDS011;13935;55.672;37.764;2023-08-21T07:32:21;4.38;;;2.63;;
26191;SDS011;13935;55.672;37.764;2023-08-21T07:33:24;4.38;;;2.47;;
26191;SDS011;13935;55.672;37.764;2023-08-21T07:34:26;5.15;;;2.47;;
26191;SDS011;13935;55.672;37.764;2023-08-21T07:35:28;4.00;;;2.45;;
26191;SDS011;13935;55.672;37.764;2023-08-21T07:36:33;4.60;;;2.65;;
26191;SDS011;13935;55.672;37.764;2023-08-21T07:37:36;7.43;;;2.10;;
26191;SDS011;13935;55.672;37.764;2023-08-21T07:38:38;4.68;;;2.55;;
26191;SDS011;13935;55.672;37.764;2023-08-21T07:39:40;5.15;;;2.58;;
26191;SDS011;13935;55.672;37.764;2023-08-21T07:40:42;4.68;;;2.72;;
26191;SDS011;13935;55.672;37.764;2023-08-21T07:41:44;5.25;;;2.72;;
26191;SDS011;13935;55.672;37.764;2023-08-21T07:42:47;4.10;;;2.65;;
26191;SDS011;13935;55.672;37.764;2023-08-21T07:43:48;7.85;;;2.70;;
26191;SDS011;13935;55.672;37.764;2023-08-21T07:44:51;5.53;;;2.55;;
26191;SDS011;13935;55.672;37.764;2023-08-21T07:45:54;4.35;;;2.15;;
26191;SDS011;13935;55.672;37.764;2023-08-21T07:46:56;4.50;;;2.30;;
26191;SDS011;13935;55.672;37.764;2023-08-21T07:47:58;4.35;;;2.35;;
26191;SDS011;13935;55.672;37.764;2023-08-21T07:49:15;4.45;;;2.67;;
26191;SDS011;13935;55.672;37.764;2023-08-21T07:50:17;3.67;;;2.33;;
26191;SDS011;13935;55.672;37.764;2023-08-21T07:51:19;4.93;;;2.72;;
26191;SDS011;13935;55.672;37.764;2023-08-21T07:52:21;4.97;;;3.00;;
26191;SDS011;13935;55.672;37.764;2023-08-21T07:53:24;5.20;;;3.13;;
26191;SDS011;13935;55.672;37.764;2023-08-21T07:54:27;4.95;;;3.03;;
26191;SDS011;13935;55.672;37.764;2023-08-21T07:55:29;4.63;;;2.53;;
26191;SDS011;13935;55.672;37.764;2023-08-21T07:56:31;5.22;;;2.95;;
26191;SDS011;13935;55.672;37.764;2023-08-21T07:57:33;5.60;;;3.10;;
26191;SDS011;13935;55.672;37.764;2023-08-21T07:58:35;4.47;;;2.63;;
26191;SDS011;13935;55.672;37.764;2023-08-21T07:59:37;5.60;;;2.35;;
26191;SDS011;13935;55.672;37.764;2023-08-21T08:00:39;3.80;;;2.22;;
26191;SDS011;13935;55.672;37.764;2023-08-21T08:01:41;3.10;;;2.10;;
26191;SDS011;13935;55.672;37.764;2023-08-21T08:02:43;4.65;;;2.30;;
26191;SDS011;13935;55.672;37.764;2023-08-21T08:03:45;3.50;;;2.20;;
26191;SDS011;13935;55.672;37.764;2023-08-21T08:04:47;3.67;;;2.17;;
26191;SDS011;13935;55.672;37.764;2023-08-21T08:05:48;5.10;;;2.33;;
26191;SDS011;13935;55.672;37.764;2023-08-21T08:06:56;3.28;;;2.00;;
26191;SDS011;13935;55.672;37.764;2023-08-21T08:07:58;3.35;;;2.20;;
26191;SDS011;13935;55.672;37.764;2023-08-21T08:09:00;3.70;;;2.33;;
26191;SDS011;13935;55.672;37.764;2023-08-21T08:10:02;3.83;;;2.50;;
26191;SDS011;13935;55.672;37.764;2023-08-21T08:11:04;6.00;;;2.90;;
26191;SDS011;13935;55.672;37.764;2023-08-21T08:12:06;4.18;;;2.90;;
26191;SDS011;13935;55.672;37.764;2023-08-21T08:13:10;4.82;;;3.10;;